8XS0 weather

CLOSED Tivydale Ranch Airport
Fredericksburg, Texas, United States

Public forecast

Using degrees Fahrenheit for public forecast. Weather courtesy of forecast.io.

Closest aviation weather report (METAR) to Tivydale Ranch Airport

Closest report is Gillespie County Airport, 9.9 nm (18.3 km) E. Retrieved 2019/10/22 20:35 UTC (0 seconds ago):

KT82 222035Z AUTO 15007KT 10SM CLR 25/M02 A3015 RMK AO2 T02541022

Closest aviation forecast (TAF) to Tivydale Ranch Airport

Closest forecast is Kimble County Airport, 37.7 nm (69.8 km) WNW. Retrieved 2019/10/22 18:48 UTC (2 hours ago):

TAF KJCT 221745Z 2218/2318 15007KT P6SM SKC FM230100 VRB03KT P6SM SKC FM231400 19014G24KT P6SM SKC